sensor_id;sensor_type;location;lat;lon;timestamp;temperature;humidity
24148;DHT22;12309;51.450;-2.624;2023-11-21T00:02:03;11.20;99.90
24148;DHT22;12309;51.450;-2.624;2023-11-21T00:04:30;11.30;99.90
24148;DHT22;12309;51.450;-2.624;2023-11-21T00:06:55;11.30;99.90
24148;DHT22;12309;51.450;-2.624;2023-11-21T00:09:21;11.20;99.90
24148;DHT22;12309;51.450;-2.624;2023-11-21T00:11:47;11.20;99.90
24148;DHT22;12309;51.450;-2.624;2023-11-21T00:14:13;11.20;99.90
24148;DHT22;12309;51.450;-2.624;2023-11-21T00:16:40;11.30;99.90
24148;DHT22;12309;51.450;-2.624;2023-11-21T00:19:06;11.40;99.90
24148;DHT22;12309;51.450;-2.624;2023-11-21T00:21:32;11.30;99.90
24148;DHT22;12309;51.450;-2.624;2023-11-21T00:23:57;11.30;99.90
24148;DHT22;12309;51.450;-2.624;2023-11-21T00:26:23;14.00;99.90
24148;DHT22;12309;51.450;-2.624;2023-11-21T00:28:50;11.30;99.90
24148;DHT22;12309;51.450;-2.624;2023-11-21T00:31:16;11.30;99.90
24148;DHT22;12309;51.450;-2.624;2023-11-21T00:33:41;11.30;99.90
24148;DHT22;12309;51.450;-2.624;2023-11-21T00:36:08;11.40;99.90
24148;DHT22;12309;51.450;-2.624;2023-11-21T00:38:35;11.40;99.90
24148;DHT22;12309;51.450;-2.624;2023-11-21T00:41:01;11.40;99.90
24148;DHT22;12309;51.450;-2.624;2023-11-21T00:43:28;11.40;99.90
24148;DHT22;12309;51.450;-2.624;2023-11-21T00:45:54;12.60;99.90
24148;DHT22;12309;51.450;-2.624;2023-11-21T00:48:19;11.40;99.90
24148;DHT22;12309;51.450;-2.624;2023-11-21T00:50:45;11.40;99.90
24148;DHT22;12309;51.450;-2.624;2023-11-21T00:53:10;11.40;99.90
24148;DHT22;12309;51.450;-2.624;2023-11-21T00:55:37;11.40;99.90
24148;DHT22;12309;51.450;-2.624;2023-11-21T00:58:03;11.80;99.90
24148;DHT22;12309;51.450;-2.624;2023-11-21T01:00:29;11.40;99.90
24148;DHT22;12309;51.450;-2.624;2023-11-21T01:02:55;11.40;99.90
24148;DHT22;12309;51.450;-2.624;2023-11-21T01:05:21;11.50;99.90
24148;DHT22;12309;51.450;-2.624;2023-11-21T01:07:47;11.30;99.90
24148;DHT22;12309;51.450;-2.624;2023-11-21T01:10:12;11.00;99.90
24148;DHT22;12309;51.450;-2.624;2023-11-21T01:12:38;11.10;99.90
24148;DHT22;12309;51.450;-2.624;2023-11-21T01:15:05;11.30;99.90
24148;DHT22;12309;51.450;-2.624;2023-11-21T01:17:34;11.20;99.90
24148;DHT22;12309;51.450;-2.624;2023-11-21T01:20:01;11.20;99.90
24148;DHT22;12309;51.450;-2.624;2023-11-21T01:22:26;11.20;99.90
24148;DHT22;12309;51.450;-2.624;2023-11-21T01:24:53;11.20;99.90
24148;DHT22;12309;51.450;-2.624;2023-11-21T01:27:19;11.20;99.90
24148;DHT22;12309;51.450;-2.624;2023-11-21T01:29:45;11.20;99.90
24148;DHT22;12309;51.450;-2.624;2023-11-21T01:32:11;11.20;99.90
24148;DHT22;12309;51.450;-2.624;2023-11-21T01:34:36;11.20;99.90
24148;DHT22;12309;51.450;-2.624;2023-11-21T01:37:03;11.20;99.90
24148;DHT22;12309;51.450;-2.624;2023-11-21T01:39:30;11.10;99.90
24148;DHT22;12309;51.450;-2.624;2023-11-21T01:41:57;11.10;99.90
24148;DHT22;12309;51.450;-2.624;2023-11-21T01:44:24;12.60;99.90
24148;DHT22;12309;51.450;-2.624;2023-11-21T01:46:50;11.10;99.90
24148;DHT22;12309;51.450;-2.624;2023-11-21T01:49:17;11.10;99.90
24148;DHT22;12309;51.450;-2.624;2023-11-21T01:51:47;11.00;99.90
24148;DHT22;12309;51.450;-2.624;2023-11-21T01:54:13;11.00;99.90
24148;DHT22;12309;51.450;-2.624;2023-11-21T01:59:05;11.00;99.90
24148;DHT22;12309;51.450;-2.624;2023-11-21T02:01:33;11.00;99.90
24148;DHT22;12309;51.450;-2.624;2023-11-21T02:03:59;11.00;99.90
24148;DHT22;12309;51.450;-2.624;2023-11-21T02:06:25;10.90;99.90
24148;DHT22;12309;51.450;-2.624;2023-11-21T02:08:51;11.00;99.90
24148;DHT22;12309;51.450;-2.624;2023-11-21T02:11:17;10.90;99.90
24148;DHT22;12309;51.450;-2.624;2023-11-21T02:13:44;10.80;99.90
24148;DHT22;12309;51.450;-2.624;2023-11-21T02:16:11;10.90;99.90
24148;DHT22;12309;51.450;-2.624;2023-11-21T02:18:39;10.90;99.90
24148;DHT22;12309;51.450;-2.624;2023-11-21T02:21:05;10.90;99.90
24148;DHT22;12309;51.450;-2.624;2023-11-21T02:23:31;10.90;99.90
24148;DHT22;12309;51.450;-2.624;2023-11-21T02:25:56;11.00;99.90
24148;DHT22;12309;51.450;-2.624;2023-11-21T02:28:22;11.50;99.90
24148;DHT22;12309;51.450;-2.624;2023-11-21T02:30:51;11.00;99.90
24148;DHT22;12309;51.450;-2.624;2023-11-21T02:33:21;10.90;99.90
24148;DHT22;12309;51.450;-2.624;2023-11-21T02:35:47;10.90;99.90
24148;DHT22;12309;51.450;-2.624;2023-11-21T02:38:13;10.90;99.90
24148;DHT22;12309;51.450;-2.624;2023-11-21T02:40:39;11.00;99.90
24148;DHT22;12309;51.450;-2.624;2023-11-21T02:43:05;11.00;99.90
24148;DHT22;12309;51.450;-2.624;2023-11-21T02:45:31;10.90;99.90
24148;DHT22;12309;51.450;-2.624;2023-11-21T02:47:57;11.00;99.90
24148;DHT22;12309;51.450;-2.624;2023-11-21T02:50:23;10.60;99.90
24148;DHT22;12309;51.450;-2.624;2023-11-21T02:52:50;11.00;99.90
24148;DHT22;12309;51.450;-2.624;2023-11-21T02:55:16;11.00;99.90
24148;DHT22;12309;51.450;-2.624;2023-11-21T02:57:42;11.00;99.90
24148;DHT22;12309;51.450;-2.624;2023-11-21T03:00:08;11.00;99.90
24148;DHT22;12309;51.450;-2.624;2023-11-21T03:02:35;11.00;99.90
24148;DHT22;12309;51.450;-2.624;2023-11-21T03:05:05;11.00;99.90
24148;DHT22;12309;51.450;-2.624;2023-11-21T03:09:57;11.00;99.90
24148;DHT22;12309;51.450;-2.624;2023-11-21T03:12:23;11.20;99.90
24148;DHT22;12309;51.450;-2.624;2023-11-21T03:14:48;11.10;99.90
24148;DHT22;12309;51.450;-2.624;2023-11-21T03:17:14;11.20;99.90
24148;DHT22;12309;51.450;-2.624;2023-11-21T03:19:41;11.00;99.90
24148;DHT22;12309;51.450;-2.624;2023-11-21T03:22:07;11.00;99.90
24148;DHT22;12309;51.450;-2.624;2023-11-21T03:24:34;11.00;99.90
24148;DHT22;12309;51.450;-2.624;2023-11-21T03:27:00;11.00;99.90
24148;DHT22;12309;51.450;-2.624;2023-11-21T03:29:25;11.00;99.90
24148;DHT22;12309;51.450;-2.624;2023-11-21T03:31:51;11.10;99.90
24148;DHT22;12309;51.450;-2.624;2023-11-21T03:34:24;11.20;99.90
24148;DHT22;12309;51.450;-2.624;2023-11-21T03:36:51;11.10;99.90
24148;DHT22;12309;51.450;-2.624;2023-11-21T03:39:18;11.10;99.90
24148;DHT22;12309;51.450;-2.624;2023-11-21T03:44:10;11.10;99.90
24148;DHT22;12309;51.450;-2.624;2023-11-21T03:46:36;10.90;99.90
24148;DHT22;12309;51.450;-2.624;2023-11-21T03:49:01;11.10;99.90
24148;DHT22;12309;51.450;-2.624;2023-11-21T03:51:27;10.90;99.90
24148;DHT22;12309;51.450;-2.624;2023-11-21T03:53:53;11.00;99.90
24148;DHT22;12309;51.450;-2.624;2023-11-21T03:56:19;11.00;99.90
24148;DHT22;12309;51.450;-2.624;2023-11-21T03:58:47;11.00;99.90
24148;DHT22;12309;51.450;-2.624;2023-11-21T04:01:24;11.00;99.90
24148;DHT22;12309;51.450;-2.624;2023-11-21T04:03:50;10.90;99.90
24148;DHT22;12309;51.450;-2.624;2023-11-21T04:06:17;10.90;99.90
24148;DHT22;12309;51.450;-2.624;2023-11-21T04:08:44;10.90;99.90
24148;DHT22;12309;51.450;-2.624;2023-11-21T04:11:10;10.50;99.90
24148;DHT22;12309;51.450;-2.624;2023-11-21T04:13:40;10.90;99.90
24148;DHT22;12309;51.450;-2.624;2023-11-21T04:16:07;10.60;99.90
24148;DHT22;12309;51.450;-2.624;2023-11-21T04:18:35;11.00;99.90
24148;DHT22;12309;51.450;-2.624;2023-11-21T04:21:01;10.80;99.90
24148;DHT22;12309;51.450;-2.624;2023-11-21T04:23:29;10.80;99.90
24148;DHT22;12309;51.450;-2.624;2023-11-21T04:25:55;10.80;99.90
24148;DHT22;12309;51.450;-2.624;2023-11-21T04:28:23;10.80;99.90
24148;DHT22;12309;51.450;-2.624;2023-11-21T04:30:49;10.70;99.90
24148;DHT22;12309;51.450;-2.624;2023-11-21T04:33:15;10.80;99.90
24148;DHT22;12309;51.450;-2.624;2023-11-21T04:35:41;10.70;99.90
24148;DHT22;12309;51.450;-2.624;2023-11-21T04:38:07;10.50;99.90
24148;DHT22;12309;51.450;-2.624;2023-11-21T04:40:33;10.80;99.90
24148;DHT22;12309;51.450;-2.624;2023-11-21T04:42:58;10.70;99.90
24148;DHT22;12309;51.450;-2.624;2023-11-21T04:45:24;10.70;99.90
24148;DHT22;12309;51.450;-2.624;2023-11-21T04:47:50;10.70;99.90
24148;DHT22;12309;51.450;-2.624;2023-11-21T04:50:15;10.60;99.90
24148;DHT22;12309;51.450;-2.624;2023-11-21T04:52:41;10.60;99.90
24148;DHT22;12309;51.450;-2.624;2023-11-21T04:55:07;10.50;99.90
24148;DHT22;12309;51.450;-2.624;2023-11-21T04:57:36;10.60;99.90
24148;DHT22;12309;51.450;-2.624;2023-11-21T05:00:02;10.60;99.90
24148;DHT22;12309;51.450;-2.624;2023-11-21T05:02:33;10.60;99.90
24148;DHT22;12309;51.450;-2.624;2023-11-21T05:05:03;10.60;99.90
24148;DHT22;12309;51.450;-2.624;2023-11-21T05:07:32;10.20;99.90
24148;DHT22;12309;51.450;-2.624;2023-11-21T05:09:57;10.70;99.90
24148;DHT22;12309;51.450;-2.624;2023-11-21T05:12:24;10.50;99.90
24148;DHT22;12309;51.450;-2.624;2023-11-21T05:14:50;10.70;99.90
24148;DHT22;12309;51.450;-2.624;2023-11-21T05:17:16;10.50;99.90
24148;DHT22;12309;51.450;-2.624;2023-11-21T05:19:41;10.50;99.90
24148;DHT22;12309;51.450;-2.624;2023-11-21T05:22:08;10.50;99.90
24148;DHT22;12309;51.450;-2.624;2023-11-21T05:24:34;10.50;99.90
24148;DHT22;12309;51.450;-2.624;2023-11-21T05:27:00;10.50;99.90
24148;DHT22;12309;51.450;-2.624;2023-11-21T05:29:26;10.50;99.90
24148;DHT22;12309;51.450;-2.624;2023-11-21T05:31:52;10.50;99.90
24148;DHT22;12309;51.450;-2.624;2023-11-21T05:34:18;10.40;99.90
24148;DHT22;12309;51.450;-2.624;2023-11-21T05:36:44;10.60;99.90
24148;DHT22;12309;51.450;-2.624;2023-11-21T05:44:03;10.50;99.90
24148;DHT22;12309;51.450;-2.624;2023-11-21T05:46:29;10.60;99.90
24148;DHT22;12309;51.450;-2.624;2023-11-21T05:48:54;10.60;99.90
24148;DHT22;12309;51.450;-2.624;2023-11-21T05:51:20;10.30;99.90
24148;DHT22;12309;51.450;-2.624;2023-11-21T05:53:46;10.50;99.90
24148;DHT22;12309;51.450;-2.624;2023-11-21T05:56:12;10.50;99.90
24148;DHT22;12309;51.450;-2.624;2023-11-21T05:58:39;10.50;99.90
24148;DHT22;12309;51.450;-2.624;2023-11-21T06:01:05;10.40;99.90
24148;DHT22;12309;51.450;-2.624;2023-11-21T06:03:38;10.60;99.90
24148;DHT22;12309;51.450;-2.624;2023-11-21T06:06:04;10.80;99.90
24148;DHT22;12309;51.450;-2.624;2023-11-21T06:10:56;10.50;99.90
24148;DHT22;12309;51.450;-2.624;2023-11-21T06:13:21;10.40;99.90
24148;DHT22;12309;51.450;-2.624;2023-11-21T06:18:15;10.30;99.90
24148;DHT22;12309;51.450;-2.624;2023-11-21T06:20:41;10.40;99.90
24148;DHT22;12309;51.450;-2.624;2023-11-21T06:23:07;10.40;99.90
24148;DHT22;12309;51.450;-2.624;2023-11-21T06:25:32;10.40;99.90
24148;DHT22;12309;51.450;-2.624;2023-11-21T06:28:02;10.40;99.90
24148;DHT22;12309;51.450;-2.624;2023-11-21T06:30:28;10.40;99.90
24148;DHT22;12309;51.450;-2.624;2023-11-21T06:32:54;10.40;99.90
24148;DHT22;12309;51.450;-2.624;2023-11-21T06:35:21;10.40;99.90
24148;DHT22;12309;51.450;-2.624;2023-11-21T06:37:47;10.40;99.90
24148;DHT22;12309;51.450;-2.624;2023-11-21T06:40:13;10.50;99.90
24148;DHT22;12309;51.450;-2.624;2023-11-21T06:42:40;10.50;99.90
24148;DHT22;12309;51.450;-2.624;2023-11-21T06:45:07;10.40;99.90
24148;DHT22;12309;51.450;-2.624;2023-11-21T06:47:33;10.30;99.90
24148;DHT22;12309;51.450;-2.624;2023-11-21T06:49:59;10.30;99.90
24148;DHT22;12309;51.450;-2.624;2023-11-21T06:54:51;10.30;99.90
24148;DHT22;12309;51.450;-2.624;2023-11-21T06:57:17;10.20;99.90
24148;DHT22;12309;51.450;-2.624;2023-11-21T06:59:43;10.40;99.90
24148;DHT22;12309;51.450;-2.624;2023-11-21T07:02:09;10.30;99.90
24148;DHT22;12309;51.450;-2.624;2023-11-21T07:04:35;10.40;99.90
24148;DHT22;12309;51.450;-2.624;2023-11-21T07:07:02;10.50;99.90
24148;DHT22;12309;51.450;-2.624;2023-11-21T07:09:28;10.30;99.90
24148;DHT22;12309;51.450;-2.624;2023-11-21T07:11:54;10.50;99.90
24148;DHT22;12309;51.450;-2.624;2023-11-21T07:14:20;10.30;99.90
24148;DHT22;12309;51.450;-2.624;2023-11-21T07:19:13;10.40;99.90
24148;DHT22;12309;51.450;-2.624;2023-11-21T07:21:39;10.30;99.90
24148;DHT22;12309;51.450;-2.624;2023-11-21T07:24:06;10.30;99.90
24148;DHT22;12309;51.450;-2.624;2023-11-21T07:26:32;10.40;99.90
24148;DHT22;12309;51.450;-2.624;2023-11-21T07:28:59;10.40;99.90
24148;DHT22;12309;51.450;-2.624;2023-11-21T07:31:25;10.50;99.90
24148;DHT22;12309;51.450;-2.624;2023-11-21T07:33:51;10.40;99.90
24148;DHT22;12309;51.450;-2.624;2023-11-21T07:36:17;10.50;99.90
24148;DHT22;12309;51.450;-2.624;2023-11-21T07:38:49;10.40;99.90
24148;DHT22;12309;51.450;-2.624;2023-11-21T07:41:14;10.40;99.90
24148;DHT22;12309;51.450;-2.624;2023-11-21T07:43:44;10.40;99.90
24148;DHT22;12309;51.450;-2.624;2023-11-21T07:46:11;10.40;99.90
24148;DHT22;12309;51.450;-2.624;2023-11-21T07:48:38;10.40;99.90
24148;DHT22;12309;51.450;-2.624;2023-11-21T07:51:03;10.20;99.90
24148;DHT22;12309;51.450;-2.624;2023-11-21T07:56:06;10.40;99.90
24148;DHT22;12309;51.450;-2.624;2023-11-21T07:58:33;10.50;99.90
24148;DHT22;12309;51.450;-2.624;2023-11-21T08:00:59;10.40;99.90
24148;DHT22;12309;51.450;-2.624;2023-11-21T08:03:25;10.40;99.90
24148;DHT22;12309;51.450;-2.624;2023-11-21T08:08:18;10.40;99.90
24148;DHT22;12309;51.450;-2.624;2023-11-21T08:10:44;10.50;99.90
24148;DHT22;12309;51.450;-2.624;2023-11-21T08:13:22;10.50;99.90
24148;DHT22;12309;51.450;-2.624;2023-11-21T08:15:47;10.40;99.90
24148;DHT22;12309;51.450;-2.624;2023-11-21T08:18:13;10.40;99.90
24148;DHT22;12309;51.450;-2.624;2023-11-21T08:20:40;10.50;99.90
24148;DHT22;12309;51.450;-2.624;2023-11-21T08:23:06;10.40;99.90
24148;DHT22;12309;51.450;-2.624;2023-11-21T08:25:32;10.60;99.90
24148;DHT22;12309;51.450;-2.624;2023-11-21T08:27:58;10.50;99.90
24148;DHT22;12309;51.450;-2.624;2023-11-21T08:30:24;10.50;99.90
24148;DHT22;12309;51.450;-2.624;2023-11-21T08:32:50;10.50;99.90
24148;DHT22;12309;51.450;-2.624;2023-11-21T08:35:19;10.50;99.90
24148;DHT22;12309;51.450;-2.624;2023-11-21T08:37:45;10.60;99.90
24148;DHT22;12309;51.450;-2.624;2023-11-21T08:40:12;10.60;99.90
24148;DHT22;12309;51.450;-2.624;2023-11-21T08:42:42;10.60;99.90
24148;DHT22;12309;51.450;-2.624;2023-11-21T08:45:08;10.70;99.90
24148;DHT22;12309;51.450;-2.624;2023-11-21T08:47:34;10.70;99.90
24148;DHT22;12309;51.450;-2.624;2023-11-21T08:50:02;10.70;99.90
24148;DHT22;12309;51.450;-2.624;2023-11-21T08:52:27;10.50;99.90
24148;DHT22;12309;51.450;-2.624;2023-11-21T08:54:53;10.70;99.90
24148;DHT22;12309;51.450;-2.624;2023-11-21T08:57:24;10.70;99.90
24148;DHT22;12309;51.450;-2.624;2023-11-21T08:59:50;10.70;99.90
24148;DHT22;12309;51.450;-2.624;2023-11-21T09:02:21;10.80;99.90
24148;DHT22;12309;51.450;-2.624;2023-11-21T09:04:49;10.80;99.90
24148;DHT22;12309;51.450;-2.624;2023-11-21T09:07:16;10.80;99.90
24148;DHT22;12309;51.450;-2.624;2023-11-21T09:09:41;10.80;99.90
24148;DHT22;12309;51.450;-2.624;2023-11-21T09:12:07;10.90;99.90
24148;DHT22;12309;51.450;-2.624;2023-11-21T09:14:33;10.90;99.90
24148;DHT22;12309;51.450;-2.624;2023-11-21T09:16:59;10.90;99.90
24148;DHT22;12309;51.450;-2.624;2023-11-21T09:19:26;10.90;99.90
24148;DHT22;12309;51.450;-2.624;2023-11-21T09:21:51;10.90;99.90
24148;DHT22;12309;51.450;-2.624;2023-11-21T09:24:17;10.70;99.90
24148;DHT22;12309;51.450;-2.624;2023-11-21T09:26:43;10.60;99.90
24148;DHT22;12309;51.450;-2.624;2023-11-21T09:29:09;10.80;99.90
24148;DHT22;12309;51.450;-2.624;2023-11-21T09:31:34;12.20;99.90
24148;DHT22;12309;51.450;-2.624;2023-11-21T09:34:01;10.70;99.90
24148;DHT22;12309;51.450;-2.624;2023-11-21T09:36:27;10.90;99.90
24148;DHT22;12309;51.450;-2.624;2023-11-21T09:38:55;10.80;99.90
24148;DHT22;12309;51.450;-2.624;2023-11-21T09:41:40;10.90;99.90
24148;DHT22;12309;51.450;-2.624;2023-11-21T09:44:11;10.80;99.90
24148;DHT22;12309;51.450;-2.624;2023-11-21T09:46:40;10.80;99.90
24148;DHT22;12309;51.450;-2.624;2023-11-21T09:49:09;10.80;99.90
24148;DHT22;12309;51.450;-2.624;2023-11-21T09:51:39;10.90;99.90
24148;DHT22;12309;51.450;-2.624;2023-11-21T09:54:08;10.80;99.90
24148;DHT22;12309;51.450;-2.624;2023-11-21T09:56:36;10.90;99.90
24148;DHT22;12309;51.450;-2.624;2023-11-21T09:59:03;10.90;99.90
24148;DHT22;12309;51.450;-2.624;2023-11-21T10:01:32;11.00;99.90
24148;DHT22;12309;51.450;-2.624;2023-11-21T10:03:58;11.00;99.90
24148;DHT22;12309;51.450;-2.624;2023-11-21T10:06:26;11.00;99.90
24148;DHT22;12309;51.450;-2.624;2023-11-21T10:08:53;11.30;99.90
24148;DHT22;12309;51.450;-2.624;2023-11-21T10:11:20;11.10;99.90
24148;DHT22;12309;51.450;-2.624;2023-11-21T10:13:47;11.10;99.90
24148;DHT22;12309;51.450;-2.624;2023-11-21T10:16:19;10.80;99.90
24148;DHT22;12309;51.450;-2.624;2023-11-21T10:18:48;11.10;99.90
24148;DHT22;12309;51.450;-2.624;2023-11-21T10:21:18;11.00;99.90
24148;DHT22;12309;51.450;-2.624;2023-11-21T10:23:44;11.00;99.90
24148;DHT22;12309;51.450;-2.624;2023-11-21T10:26:11;9.30;99.90
24148;DHT22;12309;51.450;-2.624;2023-11-21T10:28:54;11.00;99.90
24148;DHT22;12309;51.450;-2.624;2023-11-21T10:31:21;11.10;99.90
24148;DHT22;12309;51.450;-2.624;2023-11-21T10:33:46;11.10;99.90
24148;DHT22;12309;51.450;-2.624;2023-11-21T10:36:12;11.20;99.90
24148;DHT22;12309;51.450;-2.624;2023-11-21T10:38:42;11.20;99.90
24148;DHT22;12309;51.450;-2.624;2023-11-21T10:41:11;11.10;99.90
24148;DHT22;12309;51.450;-2.624;2023-11-21T10:43:40;11.20;99.90
24148;DHT22;12309;51.450;-2.624;2023-11-21T10:46:07;11.20;99.90
24148;DHT22;12309;51.450;-2.624;2023-11-21T10:48:33;11.30;99.90
24148;DHT22;12309;51.450;-2.624;2023-11-21T10:51:06;11.20;99.90
24148;DHT22;12309;51.450;-2.624;2023-11-21T10:53:32;11.30;99.90
24148;DHT22;12309;51.450;-2.624;2023-11-21T10:56:06;11.20;99.90
24148;DHT22;12309;51.450;-2.624;2023-11-21T10:58:35;11.20;99.90
24148;DHT22;12309;51.450;-2.624;2023-11-21T11:01:05;11.20;99.90
24148;DHT22;12309;51.450;-2.624;2023-11-21T11:03:32;11.10;99.90
24148;DHT22;12309;51.450;-2.624;2023-11-21T11:05:59;11.30;99.90
24148;DHT22;12309;51.450;-2.624;2023-11-21T11:08:26;11.30;99.90
24148;DHT22;12309;51.450;-2.624;2023-11-21T11:10:52;11.20;99.90
24148;DHT22;12309;51.450;-2.624;2023-11-21T11:13:18;11.30;99.90
24148;DHT22;12309;51.450;-2.624;2023-11-21T11:15:47;11.30;99.90
24148;DHT22;12309;51.450;-2.624;2023-11-21T11:18:14;11.20;99.90
24148;DHT22;12309;51.450;-2.624;2023-11-21T11:20:40;11.20;99.90
24148;DHT22;12309;51.450;-2.624;2023-11-21T11:26:37;11.40;99.90
24148;DHT22;12309;51.450;-2.624;2023-11-21T11:34:55;11.40;99.90
24148;DHT22;12309;51.450;-2.624;2023-11-21T11:37:24;11.30;99.90
24148;DHT22;12309;51.450;-2.624;2023-11-21T11:39:49;11.50;99.90
24148;DHT22;12309;51.450;-2.624;2023-11-21T11:42:18;11.50;99.90
24148;DHT22;12309;51.450;-2.624;2023-11-21T11:44:46;11.60;99.90
24148;DHT22;12309;51.450;-2.624;2023-11-21T11:47:16;12.20;99.90
24148;DHT22;12309;51.450;-2.624;2023-11-21T11:49:58;11.70;99.90
24148;DHT22;12309;51.450;-2.624;2023-11-21T11:52:45;11.80;99.90
24148;DHT22;12309;51.450;-2.624;2023-11-21T11:55:13;11.90;99.90
24148;DHT22;12309;51.450;-2.624;2023-11-21T11:57:42;11.40;99.90
24148;DHT22;12309;51.450;-2.624;2023-11-21T12:02:40;11.90;99.90
24148;DHT22;12309;51.450;-2.624;2023-11-21T12:05:13;11.70;99.90
24148;DHT22;12309;51.450;-2.624;2023-11-21T12:07:45;11.80;99.90
24148;DHT22;12309;51.450;-2.624;2023-11-21T12:10:13;11.80;99.90
24148;DHT22;12309;51.450;-2.624;2023-11-21T12:12:43;11.80;99.90
24148;DHT22;12309;51.450;-2.624;2023-11-21T12:15:09;11.70;99.90
24148;DHT22;12309;51.450;-2.624;2023-11-21T12:20:03;11.70;99.90
24148;DHT22;12309;51.450;-2.624;2023-11-21T12:22:30;11.70;99.90
24148;DHT22;12309;51.450;-2.624;2023-11-21T12:24:56;11.70;99.90
24148;DHT22;12309;51.450;-2.624;2023-11-21T12:27:22;11.90;99.90
24148;DHT22;12309;51.450;-2.624;2023-11-21T12:29:47;11.80;99.90
24148;DHT22;12309;51.450;-2.624;2023-11-21T12:32:13;11.80;99.90
24148;DHT22;12309;51.450;-2.624;2023-11-21T12:34:43;11.70;99.90
24148;DHT22;12309;51.450;-2.624;2023-11-21T12:37:09;11.70;99.90
24148;DHT22;12309;51.450;-2.624;2023-11-21T12:39:36;11.60;99.90
24148;DHT22;12309;51.450;-2.624;2023-11-21T12:42:01;11.60;99.90
24148;DHT22;12309;51.450;-2.624;2023-11-21T12:44:27;11.60;99.90
24148;DHT22;12309;51.450;-2.624;2023-11-21T12:46:53;11.60;99.90
24148;DHT22;12309;51.450;-2.624;2023-11-21T12:49:18;11.70;99.90
24148;DHT22;12309;51.450;-2.624;2023-11-21T12:51:45;11.80;99.90
24148;DHT22;12309;51.450;-2.624;2023-11-21T12:54:12;11.90;99.90
24148;DHT22;12309;51.450;-2.624;2023-11-21T12:56:41;12.30;99.90
24148;DHT22;12309;51.450;-2.624;2023-11-21T12:59:07;12.70;99.90
24148;DHT22;12309;51.450;-2.624;2023-11-21T13:01:34;12.70;99.90
24148;DHT22;12309;51.450;-2.624;2023-11-21T13:04:00;13.30;99.90
24148;DHT22;12309;51.450;-2.624;2023-11-21T13:06:27;13.20;99.90
24148;DHT22;12309;51.450;-2.624;2023-11-21T13:08:55;13.10;99.90
24148;DHT22;12309;51.450;-2.624;2023-11-21T13:11:22;13.30;99.90
24148;DHT22;12309;51.450;-2.624;2023-11-21T13:13:51;13.60;99.90
24148;DHT22;12309;51.450;-2.624;2023-11-21T13:16:18;13.60;99.90
24148;DHT22;12309;51.450;-2.624;2023-11-21T13:18:46;13.80;99.90
24148;DHT22;12309;51.450;-2.624;2023-11-21T13:21:12;13.50;99.90
24148;DHT22;12309;51.450;-2.624;2023-11-21T13:23:43;13.50;99.90
24148;DHT22;12309;51.450;-2.624;2023-11-21T13:26:11;13.40;99.90
24148;DHT22;12309;51.450;-2.624;2023-11-21T13:28:37;13.30;99.90
24148;DHT22;12309;51.450;-2.624;2023-11-21T13:31:04;12.90;99.90
24148;DHT22;12309;51.450;-2.624;2023-11-21T13:33:57;13.00;99.90
24148;DHT22;12309;51.450;-2.624;2023-11-21T13:36:29;12.60;99.90
24148;DHT22;12309;51.450;-2.624;2023-11-21T13:38:59;12.40;99.90
24148;DHT22;12309;51.450;-2.624;2023-11-21T13:41:25;12.30;99.90
24148;DHT22;12309;51.450;-2.624;2023-11-21T13:43:56;11.90;99.90
24148;DHT22;12309;51.450;-2.624;2023-11-21T13:46:37;11.90;99.90
24148;DHT22;12309;51.450;-2.624;2023-11-21T13:49:03;11.90;99.90
24148;DHT22;12309;51.450;-2.624;2023-11-21T13:51:34;12.10;99.90
24148;DHT22;12309;51.450;-2.624;2023-11-21T13:54:09;11.90;99.90
24148;DHT22;12309;51.450;-2.624;2023-11-21T13:56:36;12.00;99.90
24148;DHT22;12309;51.450;-2.624;2023-11-21T13:59:02;11.90;99.90
24148;DHT22;12309;51.450;-2.624;2023-11-21T14:01:39;12.00;99.90
24148;DHT22;12309;51.450;-2.624;2023-11-21T14:04:23;12.10;99.90
24148;DHT22;12309;51.450;-2.624;2023-11-21T14:06:55;11.90;99.90
24148;DHT22;12309;51.450;-2.624;2023-11-21T14:09:22;12.00;99.90
24148;DHT22;12309;51.450;-2.624;2023-11-21T14:11:55;12.00;99.90
24148;DHT22;12309;51.450;-2.624;2023-11-21T14:14:23;12.00;99.90
24148;DHT22;12309;51.450;-2.624;2023-11-21T14:16:50;12.20;99.90
24148;DHT22;12309;51.450;-2.624;2023-11-21T14:19:17;12.20;99.90
24148;DHT22;12309;51.450;-2.624;2023-11-21T14:21:46;12.20;99.90
24148;DHT22;12309;51.450;-2.624;2023-11-21T14:24:12;12.10;99.90
24148;DHT22;12309;51.450;-2.624;2023-11-21T14:26:42;12.10;99.90
24148;DHT22;12309;51.450;-2.624;2023-11-21T14:29:09;12.20;99.90
24148;DHT22;12309;51.450;-2.624;2023-11-21T14:31:36;13.10;99.90
24148;DHT22;12309;51.450;-2.624;2023-11-21T14:34:02;12.20;99.90
24148;DHT22;12309;51.450;-2.624;2023-11-21T14:36:28;12.20;99.90
24148;DHT22;12309;51.450;-2.624;2023-11-21T14:38:54;12.10;99.90
24148;DHT22;12309;51.450;-2.624;2023-11-21T14:41:20;12.20;99.90
24148;DHT22;12309;51.450;-2.624;2023-11-21T14:43:45;12.30;99.90
24148;DHT22;12309;51.450;-2.624;2023-11-21T14:46:15;12.20;99.90
24148;DHT22;12309;51.450;-2.624;2023-11-21T14:48:42;12.30;99.90
24148;DHT22;12309;51.450;-2.624;2023-11-21T14:51:11;12.20;99.90
24148;DHT22;12309;51.450;-2.624;2023-11-21T14:53:55;12.20;99.90
24148;DHT22;12309;51.450;-2.624;2023-11-21T14:56:24;12.20;99.90
24148;DHT22;12309;51.450;-2.624;2023-11-21T14:58:57;12.10;99.90
24148;DHT22;12309;51.450;-2.624;2023-11-21T15:01:26;12.10;99.90
24148;DHT22;12309;51.450;-2.624;2023-11-21T15:04:11;11.90;99.90
24148;DHT22;12309;51.450;-2.624;2023-11-21T15:06:49;11.70;99.90
24148;DHT22;12309;51.450;-2.624;2023-11-21T15:09:16;11.70;99.90
24148;DHT22;12309;51.450;-2.624;2023-11-21T15:11:44;11.60;99.90
24148;DHT22;12309;51.450;-2.624;2023-11-21T15:14:10;11.50;99.90
24148;DHT22;12309;51.450;-2.624;2023-11-21T15:16:38;11.40;99.90
24148;DHT22;12309;51.450;-2.624;2023-11-21T15:19:11;11.30;99.90
24148;DHT22;12309;51.450;-2.624;2023-11-21T15:21:43;11.10;99.90
24148;DHT22;12309;51.450;-2.624;2023-11-21T15:26:36;11.00;99.90
24148;DHT22;12309;51.450;-2.624;2023-11-21T15:29:02;11.00;99.90
24148;DHT22;12309;51.450;-2.624;2023-11-21T15:31:27;11.10;99.90
24148;DHT22;12309;51.450;-2.624;2023-11-21T15:33:53;11.00;99.90
24148;DHT22;12309;51.450;-2.624;2023-11-21T15:36:19;10.90;99.90
24148;DHT22;12309;51.450;-2.624;2023-11-21T15:41:12;10.80;99.90
24148;DHT22;12309;51.450;-2.624;2023-11-21T15:43:38;10.90;99.90
24148;DHT22;12309;51.450;-2.624;2023-11-21T15:46:04;10.70;99.90
24148;DHT22;12309;51.450;-2.624;2023-11-21T15:48:34;10.80;99.90
24148;DHT22;12309;51.450;-2.624;2023-11-21T15:51:00;11.10;99.90
24148;DHT22;12309;51.450;-2.624;2023-11-21T15:53:28;10.70;99.90
24148;DHT22;12309;51.450;-2.624;2023-11-21T15:55:53;10.60;99.90
24148;DHT22;12309;51.450;-2.624;2023-11-21T15:58:19;10.70;99.90
24148;DHT22;12309;51.450;-2.624;2023-11-21T16:00:45;10.80;99.90
24148;DHT22;12309;51.450;-2.624;2023-11-21T16:03:10;10.80;99.90